sensor_id;sensor_type;location;lat;lon;timestamp;pressure;altitude;pressure_sealevel;temperature;humidity
45403;BME280;47427;51.976;5.326;2023-02-22T00:00:18;101512.81;;;6.15;100.00
45403;BME280;47427;51.976;5.326;2023-02-22T00:03:51;101508.50;;;6.15;100.00
45403;BME280;47427;51.976;5.326;2023-02-22T00:07:16;101509.41;;;6.16;100.00
45403;BME280;47427;51.976;5.326;2023-02-22T00:10:45;101511.66;;;6.10;100.00
45403;BME280;47427;51.976;5.326;2023-02-22T00:14:20;101507.66;;;6.00;100.00
45403;BME280;47427;51.976;5.326;2023-02-22T00:18:17;101518.44;;;6.06;100.00
45403;BME280;47427;51.976;5.326;2023-02-22T00:21:43;101513.38;;;6.09;100.00
45403;BME280;47427;51.976;5.326;2023-02-22T00:25:05;101501.91;;;6.05;100.00
45403;BME280;47427;51.976;5.326;2023-02-22T00:28:41;101506.81;;;6.16;100.00
45403;BME280;47427;51.976;5.326;2023-02-22T00:32:05;101508.91;;;6.06;100.00
45403;BME280;47427;51.976;5.326;2023-02-22T00:35:29;101513.38;;;6.09;100.00
45403;BME280;47427;51.976;5.326;2023-02-22T00:39:07;101504.75;;;6.10;100.00
45403;BME280;47427;51.976;5.326;2023-02-22T00:43:44;101501.72;;;6.02;100.00
45403;BME280;47427;51.976;5.326;2023-02-22T00:47:14;101498.16;;;6.00;100.00
45403;BME280;47427;51.976;5.326;2023-02-22T00:50:36;101495.00;;;6.06;100.00
45403;BME280;47427;51.976;5.326;2023-02-22T00:54:26;101487.91;;;6.03;100.00
45403;BME280;47427;51.976;5.326;2023-02-22T00:57:59;101488.91;;;5.91;100.00
45403;BME280;47427;51.976;5.326;2023-02-22T01:01:23;101472.91;;;5.84;100.00
45403;BME280;47427;51.976;5.326;2023-02-22T01:04:52;101483.00;;;5.78;100.00
45403;BME280;47427;51.976;5.326;2023-02-22T01:08:44;101486.91;;;5.70;100.00
45403;BME280;47427;51.976;5.326;2023-02-22T01:12:06;101479.81;;;5.68;100.00
45403;BME280;47427;51.976;5.326;2023-02-22T01:15:44;101485.56;;;5.62;100.00
45403;BME280;47427;51.976;5.326;2023-02-22T01:19:39;101496.22;;;5.67;100.00
45403;BME280;47427;51.976;5.326;2023-02-22T01:23:24;101490.03;;;5.64;100.00
45403;BME280;47427;51.976;5.326;2023-02-22T01:26:52;101480.59;;;5.67;100.00
45403;BME280;47427;51.976;5.326;2023-02-22T01:30:48;101474.88;;;5.72;100.00
45403;BME280;47427;51.976;5.326;2023-02-22T01:34:20;101464.19;;;5.68;100.00
45403;BME280;47427;51.976;5.326;2023-02-22T01:37:48;101465.72;;;5.64;100.00
45403;BME280;47427;51.976;5.326;2023-02-22T01:41:13;101462.84;;;5.59;100.00
45403;BME280;47427;51.976;5.326;2023-02-22T01:44:42;101458.59;;;5.45;100.00
45403;BME280;47427;51.976;5.326;2023-02-22T01:48:31;101454.13;;;5.42;100.00
45403;BME280;47427;51.976;5.326;2023-02-22T01:51:57;101446.94;;;5.38;100.00
45403;BME280;47427;51.976;5.326;2023-02-22T01:55:29;101454.75;;;5.38;100.00
45403;BME280;47427;51.976;5.326;2023-02-22T01:59:09;101453.13;;;5.40;100.00
45403;BME280;47427;51.976;5.326;2023-02-22T02:03:13;101449.25;;;5.34;100.00
45403;BME280;47427;51.976;5.326;2023-02-22T02:06:40;101447.59;;;5.34;100.00
45403;BME280;47427;51.976;5.326;2023-02-22T02:10:13;101436.91;;;5.30;100.00
45403;BME280;47427;51.976;5.326;2023-02-22T02:14:08;101435.91;;;5.28;100.00
45403;BME280;47427;51.976;5.326;2023-02-22T02:17:55;101437.56;;;5.11;100.00
45403;BME280;47427;51.976;5.326;2023-02-22T02:30:23;101418.00;;;5.17;100.00
45403;BME280;47427;51.976;5.326;2023-02-22T02:42:33;101398.25;;;5.06;100.00
45403;BME280;47427;51.976;5.326;2023-02-22T02:47:07;101404.56;;;5.10;100.00
45403;BME280;47427;51.976;5.326;2023-02-22T02:50:49;101402.94;;;5.12;100.00
45403;BME280;47427;51.976;5.326;2023-02-22T02:54:24;101395.44;;;5.02;100.00
45403;BME280;47427;51.976;5.326;2023-02-22T02:57:50;101393.84;;;4.89;100.00
45403;BME280;47427;51.976;5.326;2023-02-22T03:10:29;101381.88;;;4.92;100.00
45403;BME280;47427;51.976;5.326;2023-02-22T03:14:34;101376.53;;;4.89;100.00
45403;BME280;47427;51.976;5.326;2023-02-22T03:22:32;101358.50;;;4.92;100.00
45403;BME280;47427;51.976;5.326;2023-02-22T03:26:07;101365.72;;;4.98;100.00
45403;BME280;47427;51.976;5.326;2023-02-22T03:29:45;101366.28;;;4.92;100.00
45403;BME280;47427;51.976;5.326;2023-02-22T03:33:49;101365.03;;;4.86;100.00
45403;BME280;47427;51.976;5.326;2023-02-22T03:37:45;101365.22;;;4.89;100.00
45403;BME280;47427;51.976;5.326;2023-02-22T03:41:17;101360.03;;;4.74;100.00
45403;BME280;47427;51.976;5.326;2023-02-22T03:45:01;101343.00;;;4.79;100.00
45403;BME280;47427;51.976;5.326;2023-02-22T03:49:21;101347.84;;;4.73;100.00
45403;BME280;47427;51.976;5.326;2023-02-22T03:52:45;101350.72;;;4.63;100.00
45403;BME280;47427;51.976;5.326;2023-02-22T03:56:29;101350.88;;;4.66;100.00
45403;BME280;47427;51.976;5.326;2023-02-22T04:00:09;101344.06;;;4.68;100.00
45403;BME280;47427;51.976;5.326;2023-02-22T04:03:43;101335.81;;;4.75;100.00
45403;BME280;47427;51.976;5.326;2023-02-22T04:07:12;101333.50;;;4.65;100.00
45403;BME280;47427;51.976;5.326;2023-02-22T04:10:54;101333.22;;;4.60;100.00
45403;BME280;47427;51.976;5.326;2023-02-22T04:14:37;101322.31;;;4.51;100.00
45403;BME280;47427;51.976;5.326;2023-02-22T04:18:21;101321.16;;;4.46;100.00
45403;BME280;47427;51.976;5.326;2023-02-22T04:22:12;101315.69;;;4.56;100.00
45403;BME280;47427;51.976;5.326;2023-02-22T04:25:43;101315.47;;;4.68;100.00
45403;BME280;47427;51.976;5.326;2023-02-22T04:29:30;101298.19;;;4.68;100.00
45403;BME280;47427;51.976;5.326;2023-02-22T04:33:22;101300.59;;;4.65;100.00
45403;BME280;47427;51.976;5.326;2023-02-22T04:37:17;101289.50;;;4.68;100.00
45403;BME280;47427;51.976;5.326;2023-02-22T04:41:05;101299.88;;;4.68;100.00
45403;BME280;47427;51.976;5.326;2023-02-22T04:44:28;101285.91;;;4.66;100.00
45403;BME280;47427;51.976;5.326;2023-02-22T04:48:05;101277.78;;;4.60;100.00
45403;BME280;47427;51.976;5.326;2023-02-22T04:51:35;101273.28;;;4.57;100.00
45403;BME280;47427;51.976;5.326;2023-02-22T04:55:08;101283.31;;;4.66;100.00
45403;BME280;47427;51.976;5.326;2023-02-22T04:58:47;101265.31;;;4.69;100.00
45403;BME280;47427;51.976;5.326;2023-02-22T05:02:11;101259.47;;;4.58;100.00
45403;BME280;47427;51.976;5.326;2023-02-22T05:05:35;101261.75;;;4.52;100.00
45403;BME280;47427;51.976;5.326;2023-02-22T05:09:02;101258.25;;;4.51;100.00
45403;BME280;47427;51.976;5.326;2023-02-22T05:12:34;101256.88;;;4.58;100.00
45403;BME280;47427;51.976;5.326;2023-02-22T05:16:14;101256.66;;;4.53;100.00
45403;BME280;47427;51.976;5.326;2023-02-22T05:19:38;101250.75;;;4.41;100.00
45403;BME280;47427;51.976;5.326;2023-02-22T05:23:10;101252.78;;;4.47;100.00
45403;BME280;47427;51.976;5.326;2023-02-22T05:26:35;101250.63;;;4.54;100.00
45403;BME280;47427;51.976;5.326;2023-02-22T05:29:58;101250.53;;;4.53;100.00
45403;BME280;47427;51.976;5.326;2023-02-22T05:33:25;101255.81;;;4.54;100.00
45403;BME280;47427;51.976;5.326;2023-02-22T05:36:48;101248.84;;;4.53;100.00
45403;BME280;47427;51.976;5.326;2023-02-22T05:40:38;101244.38;;;4.51;100.00
45403;BME280;47427;51.976;5.326;2023-02-22T05:44:04;101240.53;;;4.44;100.00
45403;BME280;47427;51.976;5.326;2023-02-22T05:47:35;101236.22;;;4.45;100.00
45403;BME280;47427;51.976;5.326;2023-02-22T05:51:32;101243.47;;;4.50;100.00
45403;BME280;47427;51.976;5.326;2023-02-22T05:54:58;101240.53;;;4.44;100.00
45403;BME280;47427;51.976;5.326;2023-02-22T05:58:20;101238.31;;;4.36;100.00
45403;BME280;47427;51.976;5.326;2023-02-22T06:01:52;101240.72;;;4.32;100.00
45403;BME280;47427;51.976;5.326;2023-02-22T06:05:25;101231.03;;;4.30;100.00
45403;BME280;47427;51.976;5.326;2023-02-22T06:08:57;101236.50;;;4.20;100.00
45403;BME280;47427;51.976;5.326;2023-02-22T06:12:37;101232.56;;;4.26;100.00
45403;BME280;47427;51.976;5.326;2023-02-22T06:16:07;101229.53;;;4.19;100.00
45403;BME280;47427;51.976;5.326;2023-02-22T06:19:34;101228.53;;;4.17;100.00
45403;BME280;47427;51.976;5.326;2023-02-22T06:23:29;101217.44;;;4.19;100.00
45403;BME280;47427;51.976;5.326;2023-02-22T06:27:06;101208.09;;;4.23;100.00
45403;BME280;47427;51.976;5.326;2023-02-22T06:30:40;101212.25;;;4.19;100.00
45403;BME280;47427;51.976;5.326;2023-02-22T06:34:13;101202.19;;;4.25;100.00
45403;BME280;47427;51.976;5.326;2023-02-22T06:37:54;101192.06;;;4.30;100.00
45403;BME280;47427;51.976;5.326;2023-02-22T06:41:32;101189.44;;;4.45;100.00
45403;BME280;47427;51.976;5.326;2023-02-22T06:45:12;101190.44;;;4.47;100.00
45403;BME280;47427;51.976;5.326;2023-02-22T06:48:39;101199.78;;;4.43;100.00
45403;BME280;47427;51.976;5.326;2023-02-22T06:52:08;101193.59;;;4.41;100.00
45403;BME280;47427;51.976;5.326;2023-02-22T06:55:32;101190.00;;;4.39;100.00
45403;BME280;47427;51.976;5.326;2023-02-22T06:59:01;101189.28;;;4.42;100.00
45403;BME280;47427;51.976;5.326;2023-02-22T07:02:23;101189.81;;;4.51;100.00
45403;BME280;47427;51.976;5.326;2023-02-22T07:05:45;101192.66;;;4.55;100.00
45403;BME280;47427;51.976;5.326;2023-02-22T07:09:12;101189.56;;;4.46;100.00
45403;BME280;47427;51.976;5.326;2023-02-22T07:12:36;101185.50;;;4.51;100.00
45403;BME280;47427;51.976;5.326;2023-02-22T07:16:00;101183.69;;;4.50;100.00
45403;BME280;47427;51.976;5.326;2023-02-22T07:19:22;101191.03;;;4.57;100.00
45403;BME280;47427;51.976;5.326;2023-02-22T07:22:47;101194.78;;;4.63;100.00
45403;BME280;47427;51.976;5.326;2023-02-22T07:26:09;101208.84;;;4.66;100.00
45403;BME280;47427;51.976;5.326;2023-02-22T07:29:30;101204.38;;;4.64;100.00
45403;BME280;47427;51.976;5.326;2023-02-22T07:33:02;101201.06;;;4.66;100.00
45403;BME280;47427;51.976;5.326;2023-02-22T07:36:31;101203.25;;;4.75;100.00
45403;BME280;47427;51.976;5.326;2023-02-22T07:40:07;101214.28;;;4.71;100.00
45403;BME280;47427;51.976;5.326;2023-02-22T07:43:32;101228.38;;;4.74;100.00
45403;BME280;47427;51.976;5.326;2023-02-22T07:46:57;101220.44;;;4.88;100.00
45403;BME280;47427;51.976;5.326;2023-02-22T07:50:29;101212.31;;;4.98;100.00
45403;BME280;47427;51.976;5.326;2023-02-22T07:53:54;101219.31;;;4.99;100.00
45403;BME280;47427;51.976;5.326;2023-02-22T07:57:18;101218.59;;;5.02;100.00
45403;BME280;47427;51.976;5.326;2023-02-22T08:00:40;101220.53;;;5.06;100.00
45403;BME280;47427;51.976;5.326;2023-02-22T08:04:07;101221.19;;;5.18;100.00
45403;BME280;47427;51.976;5.326;2023-02-22T08:07:41;101231.38;;;5.30;100.00
45403;BME280;47427;51.976;5.326;2023-02-22T08:11:08;101216.81;;;5.33;100.00
45403;BME280;47427;51.976;5.326;2023-02-22T08:14:38;101225.03;;;5.41;100.00
45403;BME280;47427;51.976;5.326;2023-02-22T08:18:20;101217.06;;;5.38;100.00
45403;BME280;47427;51.976;5.326;2023-02-22T08:21:52;101228.06;;;5.32;100.00
45403;BME280;47427;51.976;5.326;2023-02-22T08:25:39;101226.66;;;5.55;100.00
45403;BME280;47427;51.976;5.326;2023-02-22T08:29:14;101229.16;;;5.70;100.00
45403;BME280;47427;51.976;5.326;2023-02-22T08:32:46;101219.41;;;5.66;100.00
45403;BME280;47427;51.976;5.326;2023-02-22T08:36:12;101219.88;;;5.75;100.00
45403;BME280;47427;51.976;5.326;2023-02-22T08:39:39;101222.81;;;5.98;100.00
45403;BME280;47427;51.976;5.326;2023-02-22T08:43:08;101205.00;;;6.07;100.00
45403;BME280;47427;51.976;5.326;2023-02-22T08:46:52;101206.81;;;6.08;100.00
45403;BME280;47427;51.976;5.326;2023-02-22T08:50:30;101199.16;;;6.11;100.00
45403;BME280;47427;51.976;5.326;2023-02-22T08:54:23;101189.13;;;6.19;100.00
45403;BME280;47427;51.976;5.326;2023-02-22T08:57:54;101181.94;;;6.15;100.00
45403;BME280;47427;51.976;5.326;2023-02-22T09:01:24;101179.66;;;6.39;100.00
45403;BME280;47427;51.976;5.326;2023-02-22T09:05:33;101184.16;;;6.61;100.00
45403;BME280;47427;51.976;5.326;2023-02-22T09:09:03;101177.78;;;6.72;100.00
45403;BME280;47427;51.976;5.326;2023-02-22T09:12:25;101177.03;;;6.75;100.00
45403;BME280;47427;51.976;5.326;2023-02-22T09:15:58;101180.94;;;6.84;100.00
45403;BME280;47427;51.976;5.326;2023-02-22T09:19:47;101176.31;;;6.97;100.00
45403;BME280;47427;51.976;5.326;2023-02-22T09:23:18;101173.69;;;7.16;100.00
45403;BME280;47427;51.976;5.326;2023-02-22T09:26:50;101165.72;;;7.13;100.00
45403;BME280;47427;51.976;5.326;2023-02-22T09:33:57;101175.97;;;7.47;100.00
45403;BME280;47427;51.976;5.326;2023-02-22T09:37:25;101163.59;;;7.43;100.00
45403;BME280;47427;51.976;5.326;2023-02-22T09:40:51;101162.09;;;7.69;100.00
45403;BME280;47427;51.976;5.326;2023-02-22T09:44:58;101140.66;;;8.18;100.00
45403;BME280;47427;51.976;5.326;2023-02-22T09:48:31;101134.81;;;8.46;100.00
45403;BME280;47427;51.976;5.326;2023-02-22T09:52:10;101137.06;;;8.82;100.00
45403;BME280;47427;51.976;5.326;2023-02-22T09:55:40;101124.09;;;9.58;100.00
45403;BME280;47427;51.976;5.326;2023-02-22T09:59:05;101126.03;;;9.63;100.00
45403;BME280;47427;51.976;5.326;2023-02-22T10:02:33;101127.06;;;9.68;100.00
45403;BME280;47427;51.976;5.326;2023-02-22T10:06:05;101128.47;;;9.84;100.00
45403;BME280;47427;51.976;5.326;2023-02-22T10:09:35;101130.19;;;10.09;100.00
45403;BME280;47427;51.976;5.326;2023-02-22T10:13:31;101131.56;;;10.81;100.00
45403;BME280;47427;51.976;5.326;2023-02-22T10:25:03;101128.94;;;9.47;100.00
45403;BME280;47427;51.976;5.326;2023-02-22T10:28:36;101131.31;;;9.15;100.00
45403;BME280;47427;51.976;5.326;2023-02-22T10:32:03;101129.56;;;8.92;100.00
45403;BME280;47427;51.976;5.326;2023-02-22T10:35:47;101133.91;;;8.91;100.00
45403;BME280;47427;51.976;5.326;2023-02-22T10:39:38;101115.16;;;8.79;100.00
45403;BME280;47427;51.976;5.326;2023-02-22T10:43:05;101121.28;;;8.81;100.00
45403;BME280;47427;51.976;5.326;2023-02-22T10:46:31;101127.09;;;8.72;100.00
45403;BME280;47427;51.976;5.326;2023-02-22T10:49:57;101114.97;;;8.74;100.00
45403;BME280;47427;51.976;5.326;2023-02-22T10:53:25;101110.19;;;9.10;100.00
45403;BME280;47427;51.976;5.326;2023-02-22T10:56:53;101119.88;;;9.13;100.00
45403;BME280;47427;51.976;5.326;2023-02-22T11:00:31;101131.19;;;9.12;100.00
45403;BME280;47427;51.976;5.326;2023-02-22T11:04:23;101123.16;;;9.07;100.00
45403;BME280;47427;51.976;5.326;2023-02-22T11:08:25;101137.81;;;9.02;100.00
45403;BME280;47427;51.976;5.326;2023-02-22T11:11:51;101128.81;;;8.94;100.00
45403;BME280;47427;51.976;5.326;2023-02-22T11:15:33;101124.19;;;8.88;100.00
45403;BME280;47427;51.976;5.326;2023-02-22T11:19:22;101127.00;;;8.93;100.00
45403;BME280;47427;51.976;5.326;2023-02-22T11:22:45;101108.84;;;8.98;100.00
45403;BME280;47427;51.976;5.326;2023-02-22T11:26:12;101117.00;;;9.29;100.00
45403;BME280;47427;51.976;5.326;2023-02-22T11:29:37;101100.91;;;9.44;100.00
45403;BME280;47427;51.976;5.326;2023-02-22T11:36:41;101100.66;;;9.88;100.00
45403;BME280;47427;51.976;5.326;2023-02-22T11:40:21;101108.25;;;9.80;100.00
45403;BME280;47427;51.976;5.326;2023-02-22T11:44:26;101097.13;;;9.87;100.00
45403;BME280;47427;51.976;5.326;2023-02-22T11:48:00;101081.44;;;9.89;100.00
45403;BME280;47427;51.976;5.326;2023-02-22T11:52:02;101091.88;;;9.60;100.00
45403;BME280;47427;51.976;5.326;2023-02-22T11:55:38;101081.84;;;9.48;100.00
45403;BME280;47427;51.976;5.326;2023-02-22T11:59:34;101075.28;;;9.61;100.00
45403;BME280;47427;51.976;5.326;2023-02-22T12:07:21;101066.63;;;9.62;100.00
45403;BME280;47427;51.976;5.326;2023-02-22T12:22:30;101063.94;;;9.61;100.00
45403;BME280;47427;51.976;5.326;2023-02-22T12:26:19;101059.59;;;9.88;100.00
45403;BME280;47427;51.976;5.326;2023-02-22T12:29:51;101058.00;;;10.20;100.00
45403;BME280;47427;51.976;5.326;2023-02-22T12:34:10;101056.13;;;10.44;100.00
45403;BME280;47427;51.976;5.326;2023-02-22T12:38:08;101044.41;;;10.61;100.00
45403;BME280;47427;51.976;5.326;2023-02-22T12:41:39;101036.47;;;10.91;100.00
45403;BME280;47427;51.976;5.326;2023-02-22T12:53:10;101045.94;;;10.26;100.00
45403;BME280;47427;51.976;5.326;2023-02-22T13:00:56;101038.31;;;10.33;100.00
45403;BME280;47427;51.976;5.326;2023-02-22T13:04:27;101036.81;;;10.41;100.00
45403;BME280;47427;51.976;5.326;2023-02-22T13:08:27;101047.25;;;10.69;100.00
45403;BME280;47427;51.976;5.326;2023-02-22T13:27:17;101037.22;;;10.55;100.00
45403;BME280;47427;51.976;5.326;2023-02-22T13:30:49;101048.56;;;10.27;100.00
45403;BME280;47427;51.976;5.326;2023-02-22T13:35:13;101043.97;;;10.20;100.00
45403;BME280;47427;51.976;5.326;2023-02-22T13:46:35;101047.13;;;10.08;100.00
45403;BME280;47427;51.976;5.326;2023-02-22T13:58:07;101053.69;;;10.23;100.00
45403;BME280;47427;51.976;5.326;2023-02-22T14:01:43;101052.00;;;10.25;100.00
45403;BME280;47427;51.976;5.326;2023-02-22T14:09:39;101045.47;;;10.12;100.00
45403;BME280;47427;51.976;5.326;2023-02-22T14:13:09;101058.31;;;10.30;100.00
45403;BME280;47427;51.976;5.326;2023-02-22T14:16:41;101061.69;;;10.54;100.00
45403;BME280;47427;51.976;5.326;2023-02-22T14:20:19;101048.41;;;10.80;100.00
45403;BME280;47427;51.976;5.326;2023-02-22T14:23:51;101051.31;;;10.89;100.00
45403;BME280;47427;51.976;5.326;2023-02-22T14:27:14;101051.97;;;10.82;100.00
45403;BME280;47427;51.976;5.326;2023-02-22T14:31:19;101058.75;;;10.74;100.00
45403;BME280;47427;51.976;5.326;2023-02-22T14:35:05;101071.75;;;10.69;100.00
45403;BME280;47427;51.976;5.326;2023-02-22T14:38:29;101053.88;;;10.56;100.00
45403;BME280;47427;51.976;5.326;2023-02-22T14:42:18;101075.75;;;10.58;100.00
45403;BME280;47427;51.976;5.326;2023-02-22T14:46:22;101073.25;;;10.61;100.00
45403;BME280;47427;51.976;5.326;2023-02-22T14:49:47;101070.50;;;10.56;100.00
45403;BME280;47427;51.976;5.326;2023-02-22T14:53:36;101075.03;;;10.33;100.00
45403;BME280;47427;51.976;5.326;2023-02-22T14:57:13;101069.47;;;10.24;100.00
45403;BME280;47427;51.976;5.326;2023-02-22T15:00:47;101058.56;;;10.10;100.00
45403;BME280;47427;51.976;5.326;2023-02-22T15:04:25;101054.00;;;10.05;100.00
45403;BME280;47427;51.976;5.326;2023-02-22T15:07:59;101058.31;;;10.03;100.00
45403;BME280;47427;51.976;5.326;2023-02-22T15:11:28;101053.91;;;10.02;100.00
45403;BME280;47427;51.976;5.326;2023-02-22T15:15:11;101054.78;;;10.02;100.00
45403;BME280;47427;51.976;5.326;2023-02-22T15:18:43;101054.78;;;10.02;100.00
45403;BME280;47427;51.976;5.326;2023-02-22T15:22:36;101060.72;;;9.96;100.00
45403;BME280;47427;51.976;5.326;2023-02-22T15:25:58;101055.50;;;9.96;100.00
45403;BME280;47427;51.976;5.326;2023-02-22T15:29:28;101057.97;;;9.92;100.00
45403;BME280;47427;51.976;5.326;2023-02-22T15:32:53;101061.28;;;9.86;100.00
45403;BME280;47427;51.976;5.326;2023-02-22T15:36:16;101072.63;;;9.85;100.00
45403;BME280;47427;51.976;5.326;2023-02-22T15:39:39;101075.81;;;9.76;100.00
45403;BME280;47427;51.976;5.326;2023-02-22T15:43:06;101071.09;;;9.66;100.00
45403;BME280;47427;51.976;5.326;2023-02-22T15:46:38;101077.72;;;9.55;100.00
45403;BME280;47427;51.976;5.326;2023-02-22T15:50:26;101076.69;;;9.50;100.00
45403;BME280;47427;51.976;5.326;2023-02-22T15:54:03;101072.06;;;9.43;100.00
45403;BME280;47427;51.976;5.326;2023-02-22T15:57:34;101077.13;;;9.38;100.00
45403;BME280;47427;51.976;5.326;2023-02-22T16:01:09;101084.81;;;9.33;100.00
45403;BME280;47427;51.976;5.326;2023-02-22T16:04:36;101085.63;;;9.31;100.00
45403;BME280;47427;51.976;5.326;2023-02-22T16:07:58;101098.78;;;9.32;100.00
45403;BME280;47427;51.976;5.326;2023-02-22T16:11:32;101092.38;;;9.24;100.00
45403;BME280;47427;51.976;5.326;2023-02-22T16:14:57;101093.09;;;9.20;100.00
45403;BME280;47427;51.976;5.326;2023-02-22T16:18:33;101098.84;;;9.10;100.00
45403;BME280;47427;51.976;5.326;2023-02-22T16:22:00;101101.34;;;9.07;100.00
45403;BME280;47427;51.976;5.326;2023-02-22T16:25:32;101102.78;;;8.99;100.00
45403;BME280;47427;51.976;5.326;2023-02-22T16:29:04;101106.13;;;8.95;100.00
45403;BME280;47427;51.976;5.326;2023-02-22T16:32:32;101098.19;;;8.92;100.00
45403;BME280;47427;51.976;5.326;2023-02-22T16:35:54;101104.03;;;8.86;100.00
45403;BME280;47427;51.976;5.326;2023-02-22T16:39:30;101103.06;;;8.82;100.00
45403;BME280;47427;51.976;5.326;2023-02-22T16:42:53;101095.91;;;8.78;100.00
45403;BME280;47427;51.976;5.326;2023-02-22T16:46:15;101104.53;;;8.76;100.00
45403;BME280;47427;51.976;5.326;2023-02-22T16:49:54;101104.53;;;8.76;100.00
45403;BME280;47427;51.976;5.326;2023-02-22T16:53:22;101109.13;;;8.81;100.00
45403;BME280;47427;51.976;5.326;2023-02-22T16:56:51;101117.19;;;8.87;100.00
45403;BME280;47427;51.976;5.326;2023-02-22T17:00:20;101118.19;;;8.91;100.00
45403;BME280;47427;51.976;5.326;2023-02-22T17:03:53;101119.09;;;8.92;100.00
45403;BME280;47427;51.976;5.326;2023-02-22T17:07:21;101125.22;;;8.92;100.00
45403;BME280;47427;51.976;5.326;2023-02-22T17:10:52;101138.34;;;8.94;100.00
45403;BME280;47427;51.976;5.326;2023-02-22T17:14:19;101134.63;;;8.87;100.00
45403;BME280;47427;51.976;5.326;2023-02-22T17:17:55;101137.78;;;8.78;100.00
45403;BME280;47427;51.976;5.326;2023-02-22T17:21:20;101140.34;;;8.77;100.00
45403;BME280;47427;51.976;5.326;2023-02-22T17:24:50;101135.13;;;8.77;100.00
45403;BME280;47427;51.976;5.326;2023-02-22T17:28:13;101145.63;;;8.78;100.00
45403;BME280;47427;51.976;5.326;2023-02-22T17:31:35;101135.00;;;8.74;100.00
45403;BME280;47427;51.976;5.326;2023-02-22T17:34:58;101142.91;;;8.75;100.00
45403;BME280;47427;51.976;5.326;2023-02-22T17:38:19;101143.75;;;8.74;100.00
45403;BME280;47427;51.976;5.326;2023-02-22T17:41:41;101140.25;;;8.74;100.00
45403;BME280;47427;51.976;5.326;2023-02-22T17:45:05;101155.28;;;8.79;100.00
45403;BME280;47427;51.976;5.326;2023-02-22T17:48:27;101147.44;;;8.79;100.00
45403;BME280;47427;51.976;5.326;2023-02-22T17:51:49;101154.38;;;8.79;100.00
45403;BME280;47427;51.976;5.326;2023-02-22T17:55:14;101147.44;;;8.79;100.00
45403;BME280;47427;51.976;5.326;2023-02-22T17:58:37;101153.53;;;8.80;100.00
45403;BME280;47427;51.976;5.326;2023-02-22T18:02:00;101159.56;;;8.77;100.00
45403;BME280;47427;51.976;5.326;2023-02-22T18:05:23;101156.94;;;8.77;100.00
45403;BME280;47427;51.976;5.326;2023-02-22T18:08:48;101153.53;;;8.80;100.00
45403;BME280;47427;51.976;5.326;2023-02-22T18:12:15;101151.81;;;8.80;100.00
45403;BME280;47427;51.976;5.326;2023-02-22T18:15:38;101158.06;;;8.84;100.00
45403;BME280;47427;51.976;5.326;2023-02-22T18:19:04;101158.97;;;8.84;100.00
45403;BME280;47427;51.976;5.326;2023-02-22T18:22:27;101158.06;;;8.84;100.00
45403;BME280;47427;51.976;5.326;2023-02-22T18:25:50;101160.63;;;8.82;100.00
45403;BME280;47427;51.976;5.326;2023-02-22T18:29:15;101162.47;;;8.85;100.00
45403;BME280;47427;51.976;5.326;2023-02-22T18:32:38;101161.69;;;8.87;100.00
45403;BME280;47427;51.976;5.326;2023-02-22T18:36:00;101161.56;;;8.84;100.00
45403;BME280;47427;51.976;5.326;2023-02-22T18:39:21;101157.03;;;8.80;100.00
45403;BME280;47427;51.976;5.326;2023-02-22T18:42:45;101164.09;;;8.81;100.00
45403;BME280;47427;51.976;5.326;2023-02-22T18:46:18;101158.69;;;8.78;100.00
45403;BME280;47427;51.976;5.326;2023-02-22T18:49:41;101155.88;;;8.72;100.00
45403;BME280;47427;51.976;5.326;2023-02-22T18:53:04;101157.59;;;8.72;100.00
45403;BME280;47427;51.976;5.326;2023-02-22T18:56:28;101162.66;;;8.67;100.00
45403;BME280;47427;51.976;5.326;2023-02-22T18:59:51;101158.13;;;8.63;100.00
45403;BME280;47427;51.976;5.326;2023-02-22T19:03:15;101154.72;;;8.65;100.00
45403;BME280;47427;51.976;5.326;2023-02-22T19:06:38;101157.41;;;8.67;100.00
45403;BME280;47427;51.976;5.326;2023-02-22T19:10:02;101161.56;;;8.62;100.00
45403;BME280;47427;51.976;5.326;2023-02-22T19:13:23;101166.81;;;8.62;100.00
45403;BME280;47427;51.976;5.326;2023-02-22T19:16:54;101160.63;;;8.60;100.00
45403;BME280;47427;51.976;5.326;2023-02-22T19:20:22;101168.41;;;8.58;100.00
45403;BME280;47427;51.976;5.326;2023-02-22T19:23:50;101167.50;;;8.58;100.00
45403;BME280;47427;51.976;5.326;2023-02-22T19:27:16;101176.09;;;8.54;100.00
45403;BME280;47427;51.976;5.326;2023-02-22T19:30:40;101171.47;;;8.48;100.00
45403;BME280;47427;51.976;5.326;2023-02-22T19:34:10;101173.78;;;8.40;100.00
45403;BME280;47427;51.976;5.326;2023-02-22T19:37:32;101185.63;;;8.32;100.00
45403;BME280;47427;51.976;5.326;2023-02-22T19:40:58;101183.75;;;8.28;100.00
45403;BME280;47427;51.976;5.326;2023-02-22T19:44:22;101187.81;;;8.21;100.00
45403;BME280;47427;51.976;5.326;2023-02-22T19:47:46;101192.19;;;8.22;100.00
45403;BME280;47427;51.976;5.326;2023-02-22T19:51:11;101188.78;;;8.23;100.00
45403;BME280;47427;51.976;5.326;2023-02-22T19:54:33;101184.31;;;8.21;100.00
45403;BME280;47427;51.976;5.326;2023-02-22T19:58:14;101196.50;;;8.20;100.00
45403;BME280;47427;51.976;5.326;2023-02-22T20:01:44;101196.41;;;8.19;100.00
45403;BME280;47427;51.976;5.326;2023-02-22T20:05:14;101197.88;;;8.12;100.00
45403;BME280;47427;51.976;5.326;2023-02-22T20:08:41;101197.06;;;8.13;100.00
45403;BME280;47427;51.976;5.326;2023-02-22T20:12:10;101200.66;;;8.15;100.00
45403;BME280;47427;51.976;5.326;2023-02-22T20:15:34;101192.84;;;8.17;100.00
45403;BME280;47427;51.976;5.326;2023-02-22T20:19:07;101200.38;;;8.09;100.00
45403;BME280;47427;51.976;5.326;2023-02-22T20:22:31;101196.66;;;8.04;100.00